Kimberly, Oregon
Current Conditions -  °F | °C
As of 5:55 AM on Monday 24 Nov 2014 (Local Time) from KGCD Reporting Station
Clear Clear  
Wind Chill: 28°   Ceiling: Unl
Heat Index: 33°   Visibility: 10mi
Dew Point: 30°   Wind: 6mph
Humidity: 90%   Direction: 120°ESE
Pressure: 30.37"   Gusts: NA
Location:  44.76°N, 119.65°W
Report Text: KGCD 241355Z AUTO 12005KT 10SM CLR 01/M01 A3037 RMK AO2 T00061009
Loading
Personal Weather Stations






























Interactive Weather Map New forecast layout! Learn more

10-Day Weather Forecast

Advertisements
Track Severe Weather on mobile